sensor_id;sensor_type;location;lat;lon;timestamp;temperature;humidity
12166;DHT22;6146;48.128;11.476;2024-02-21T00:00:05;4.10;99.90
12166;DHT22;6146;48.128;11.476;2024-02-21T00:02:30;4.10;99.90
12166;DHT22;6146;48.128;11.476;2024-02-21T00:04:56;4.10;99.90
12166;DHT22;6146;48.128;11.476;2024-02-21T00:07:21;4.20;99.90
12166;DHT22;6146;48.128;11.476;2024-02-21T00:09:47;4.20;99.90
12166;DHT22;6146;48.128;11.476;2024-02-21T00:12:13;4.30;99.90
12166;DHT22;6146;48.128;11.476;2024-02-21T00:14:39;4.30;99.90
12166;DHT22;6146;48.128;11.476;2024-02-21T00:17:05;4.40;99.90
12166;DHT22;6146;48.128;11.476;2024-02-21T00:19:31;4.40;99.90
12166;DHT22;6146;48.128;11.476;2024-02-21T00:21:57;4.50;99.90
12166;DHT22;6146;48.128;11.476;2024-02-21T00:24:22;4.50;99.90
12166;DHT22;6146;48.128;11.476;2024-02-21T00:26:48;4.50;99.90
12166;DHT22;6146;48.128;11.476;2024-02-21T00:29:13;4.50;99.90
12166;DHT22;6146;48.128;11.476;2024-02-21T00:31:39;4.50;99.90
12166;DHT22;6146;48.128;11.476;2024-02-21T00:34:04;4.50;99.90
12166;DHT22;6146;48.128;11.476;2024-02-21T00:36:30;4.50;99.90
12166;DHT22;6146;48.128;11.476;2024-02-21T00:38:55;4.50;99.90
12166;DHT22;6146;48.128;11.476;2024-02-21T00:41:21;4.40;99.90
12166;DHT22;6146;48.128;11.476;2024-02-21T00:43:46;4.50;99.90
12166;DHT22;6146;48.128;11.476;2024-02-21T00:46:14;4.50;99.90
12166;DHT22;6146;48.128;11.476;2024-02-21T00:48:39;4.50;99.90
12166;DHT22;6146;48.128;11.476;2024-02-21T00:51:05;4.50;99.90
12166;DHT22;6146;48.128;11.476;2024-02-21T00:53:30;4.60;99.90
12166;DHT22;6146;48.128;11.476;2024-02-21T00:55:56;4.60;99.90
12166;DHT22;6146;48.128;11.476;2024-02-21T00:58:22;4.50;99.90
12166;DHT22;6146;48.128;11.476;2024-02-21T01:00:48;4.60;99.90
12166;DHT22;6146;48.128;11.476;2024-02-21T01:03:13;4.60;99.90
12166;DHT22;6146;48.128;11.476;2024-02-21T01:05:39;4.60;99.90
12166;DHT22;6146;48.128;11.476;2024-02-21T01:08:05;4.60;99.90
12166;DHT22;6146;48.128;11.476;2024-02-21T01:10:30;4.60;99.90
12166;DHT22;6146;48.128;11.476;2024-02-21T01:12:56;4.70;99.90
12166;DHT22;6146;48.128;11.476;2024-02-21T01:15:21;4.70;99.90
12166;DHT22;6146;48.128;11.476;2024-02-21T01:17:47;4.70;99.90
12166;DHT22;6146;48.128;11.476;2024-02-21T01:20:13;4.70;99.90
12166;DHT22;6146;48.128;11.476;2024-02-21T01:22:38;4.80;99.90
12166;DHT22;6146;48.128;11.476;2024-02-21T01:25:04;4.70;99.90
12166;DHT22;6146;48.128;11.476;2024-02-21T01:27:31;4.70;99.90
12166;DHT22;6146;48.128;11.476;2024-02-21T01:29:56;4.70;99.90
12166;DHT22;6146;48.128;11.476;2024-02-21T01:32:22;4.70;99.90
12166;DHT22;6146;48.128;11.476;2024-02-21T01:34:50;4.70;99.90
12166;DHT22;6146;48.128;11.476;2024-02-21T01:37:15;4.60;99.90
12166;DHT22;6146;48.128;11.476;2024-02-21T01:39:41;4.70;99.90
12166;DHT22;6146;48.128;11.476;2024-02-21T01:42:06;4.70;99.90
12166;DHT22;6146;48.128;11.476;2024-02-21T01:44:32;4.80;99.90
12166;DHT22;6146;48.128;11.476;2024-02-21T01:46:58;4.70;99.90
12166;DHT22;6146;48.128;11.476;2024-02-21T01:49:24;4.70;99.90
12166;DHT22;6146;48.128;11.476;2024-02-21T01:51:49;4.70;99.90
12166;DHT22;6146;48.128;11.476;2024-02-21T01:54:16;4.70;99.90
12166;DHT22;6146;48.128;11.476;2024-02-21T01:56:42;4.70;99.90
12166;DHT22;6146;48.128;11.476;2024-02-21T01:59:08;4.70;99.90
12166;DHT22;6146;48.128;11.476;2024-02-21T02:01:34;4.70;99.90
12166;DHT22;6146;48.128;11.476;2024-02-21T02:04:00;4.70;99.90
12166;DHT22;6146;48.128;11.476;2024-02-21T02:06:26;4.70;99.90
12166;DHT22;6146;48.128;11.476;2024-02-21T02:08:52;4.70;99.90
12166;DHT22;6146;48.128;11.476;2024-02-21T02:11:17;4.80;99.90
12166;DHT22;6146;48.128;11.476;2024-02-21T02:13:43;4.90;99.90
12166;DHT22;6146;48.128;11.476;2024-02-21T02:16:09;4.80;99.90
12166;DHT22;6146;48.128;11.476;2024-02-21T02:18:35;4.80;99.90
12166;DHT22;6146;48.128;11.476;2024-02-21T02:21:00;4.90;99.90
12166;DHT22;6146;48.128;11.476;2024-02-21T02:23:30;4.80;99.90
12166;DHT22;6146;48.128;11.476;2024-02-21T02:25:56;4.80;99.90
12166;DHT22;6146;48.128;11.476;2024-02-21T02:28:22;4.90;99.90
12166;DHT22;6146;48.128;11.476;2024-02-21T02:30:48;4.80;99.90
12166;DHT22;6146;48.128;11.476;2024-02-21T02:33:14;4.80;99.90
12166;DHT22;6146;48.128;11.476;2024-02-21T02:35:40;4.80;99.90
12166;DHT22;6146;48.128;11.476;2024-02-21T02:38:06;4.80;99.90
12166;DHT22;6146;48.128;11.476;2024-02-21T02:40:33;4.80;99.90
12166;DHT22;6146;48.128;11.476;2024-02-21T02:42:59;4.80;99.90
12166;DHT22;6146;48.128;11.476;2024-02-21T02:45:25;4.90;99.90
12166;DHT22;6146;48.128;11.476;2024-02-21T02:47:54;4.90;99.90
12166;DHT22;6146;48.128;11.476;2024-02-21T02:50:19;4.90;99.90
12166;DHT22;6146;48.128;11.476;2024-02-21T02:52:45;4.90;99.90
12166;DHT22;6146;48.128;11.476;2024-02-21T02:55:11;4.90;99.90
12166;DHT22;6146;48.128;11.476;2024-02-21T02:57:37;4.90;99.90
12166;DHT22;6146;48.128;11.476;2024-02-21T03:00:02;4.90;99.90
12166;DHT22;6146;48.128;11.476;2024-02-21T03:02:29;4.90;99.90
12166;DHT22;6146;48.128;11.476;2024-02-21T03:04:55;4.90;99.90
12166;DHT22;6146;48.128;11.476;2024-02-21T03:07:21;4.90;99.90
12166;DHT22;6146;48.128;11.476;2024-02-21T03:09:46;4.90;99.90
12166;DHT22;6146;48.128;11.476;2024-02-21T03:12:12;5.00;99.90
12166;DHT22;6146;48.128;11.476;2024-02-21T03:14:37;4.90;99.90
12166;DHT22;6146;48.128;11.476;2024-02-21T03:17:03;4.90;99.90
12166;DHT22;6146;48.128;11.476;2024-02-21T03:19:30;4.90;99.90
12166;DHT22;6146;48.128;11.476;2024-02-21T03:21:55;4.90;99.90
12166;DHT22;6146;48.128;11.476;2024-02-21T03:24:21;4.90;99.90
12166;DHT22;6146;48.128;11.476;2024-02-21T03:26:47;4.90;99.90
12166;DHT22;6146;48.128;11.476;2024-02-21T03:29:15;4.90;99.90
12166;DHT22;6146;48.128;11.476;2024-02-21T03:31:41;5.00;99.90
12166;DHT22;6146;48.128;11.476;2024-02-21T03:34:07;5.00;99.90
12166;DHT22;6146;48.128;11.476;2024-02-21T03:36:33;5.00;99.90
12166;DHT22;6146;48.128;11.476;2024-02-21T03:38:58;5.00;99.90
12166;DHT22;6146;48.128;11.476;2024-02-21T03:41:24;5.00;99.90
12166;DHT22;6146;48.128;11.476;2024-02-21T03:43:49;5.00;99.90
12166;DHT22;6146;48.128;11.476;2024-02-21T03:46:15;5.00;99.90
12166;DHT22;6146;48.128;11.476;2024-02-21T03:48:41;5.00;99.90
12166;DHT22;6146;48.128;11.476;2024-02-21T03:51:06;5.00;99.90
12166;DHT22;6146;48.128;11.476;2024-02-21T03:53:32;5.00;99.90
12166;DHT22;6146;48.128;11.476;2024-02-21T03:56:01;5.00;99.90
12166;DHT22;6146;48.128;11.476;2024-02-21T03:58:32;5.00;99.90
12166;DHT22;6146;48.128;11.476;2024-02-21T04:01:00;5.00;99.90
12166;DHT22;6146;48.128;11.476;2024-02-21T04:03:26;5.00;99.90
12166;DHT22;6146;48.128;11.476;2024-02-21T04:05:51;4.90;99.90
12166;DHT22;6146;48.128;11.476;2024-02-21T04:08:17;4.90;99.90
12166;DHT22;6146;48.128;11.476;2024-02-21T04:10:42;4.90;99.90
12166;DHT22;6146;48.128;11.476;2024-02-21T04:13:08;4.80;99.90
12166;DHT22;6146;48.128;11.476;2024-02-21T04:15:34;4.80;99.90
12166;DHT22;6146;48.128;11.476;2024-02-21T04:18:00;4.80;99.90
12166;DHT22;6146;48.128;11.476;2024-02-21T04:20:26;4.80;99.90
12166;DHT22;6146;48.128;11.476;2024-02-21T04:22:51;4.70;99.90
12166;DHT22;6146;48.128;11.476;2024-02-21T04:25:17;4.70;99.90
12166;DHT22;6146;48.128;11.476;2024-02-21T04:27:42;4.60;99.90
12166;DHT22;6146;48.128;11.476;2024-02-21T04:30:09;4.60;99.90
12166;DHT22;6146;48.128;11.476;2024-02-21T04:32:35;4.50;99.90
12166;DHT22;6146;48.128;11.476;2024-02-21T04:35:01;4.50;99.90
12166;DHT22;6146;48.128;11.476;2024-02-21T04:37:26;4.50;99.90
12166;DHT22;6146;48.128;11.476;2024-02-21T04:39:52;4.50;99.90
12166;DHT22;6146;48.128;11.476;2024-02-21T04:42:18;4.40;99.90
12166;DHT22;6146;48.128;11.476;2024-02-21T04:44:43;4.40;99.90
12166;DHT22;6146;48.128;11.476;2024-02-21T04:47:09;4.40;99.90
12166;DHT22;6146;48.128;11.476;2024-02-21T04:49:34;4.40;99.90
12166;DHT22;6146;48.128;11.476;2024-02-21T04:52:00;4.30;99.90
12166;DHT22;6146;48.128;11.476;2024-02-21T04:54:26;4.30;99.90
12166;DHT22;6146;48.128;11.476;2024-02-21T04:56:52;4.30;99.90
12166;DHT22;6146;48.128;11.476;2024-02-21T04:59:17;4.30;99.90
12166;DHT22;6146;48.128;11.476;2024-02-21T05:01:43;4.30;99.90
12166;DHT22;6146;48.128;11.476;2024-02-21T05:04:08;4.30;99.90
12166;DHT22;6146;48.128;11.476;2024-02-21T05:06:40;4.30;99.90
12166;DHT22;6146;48.128;11.476;2024-02-21T05:09:07;4.30;99.90
12166;DHT22;6146;48.128;11.476;2024-02-21T05:11:34;4.30;99.90
12166;DHT22;6146;48.128;11.476;2024-02-21T05:13:59;4.30;99.90
12166;DHT22;6146;48.128;11.476;2024-02-21T05:16:25;4.30;99.90
12166;DHT22;6146;48.128;11.476;2024-02-21T05:18:51;4.30;99.90
12166;DHT22;6146;48.128;11.476;2024-02-21T05:21:16;4.30;99.90
12166;DHT22;6146;48.128;11.476;2024-02-21T05:23:42;4.30;99.90
12166;DHT22;6146;48.128;11.476;2024-02-21T05:26:07;4.20;99.90
12166;DHT22;6146;48.128;11.476;2024-02-21T05:28:33;4.20;99.90
12166;DHT22;6146;48.128;11.476;2024-02-21T05:30:58;4.20;99.90
12166;DHT22;6146;48.128;11.476;2024-02-21T05:33:24;4.20;99.90
12166;DHT22;6146;48.128;11.476;2024-02-21T05:35:50;4.10;99.90
12166;DHT22;6146;48.128;11.476;2024-02-21T05:38:16;4.10;99.90
12166;DHT22;6146;48.128;11.476;2024-02-21T05:40:42;4.10;99.90
12166;DHT22;6146;48.128;11.476;2024-02-21T05:43:08;4.10;99.90
12166;DHT22;6146;48.128;11.476;2024-02-21T05:45:34;4.10;99.90
12166;DHT22;6146;48.128;11.476;2024-02-21T05:48:00;4.10;99.90
12166;DHT22;6146;48.128;11.476;2024-02-21T05:50:25;4.10;99.90
12166;DHT22;6146;48.128;11.476;2024-02-21T05:52:53;4.20;99.90
12166;DHT22;6146;48.128;11.476;2024-02-21T05:55:19;4.10;99.90
12166;DHT22;6146;48.128;11.476;2024-02-21T05:57:45;4.10;99.90
12166;DHT22;6146;48.128;11.476;2024-02-21T06:00:11;4.10;99.90
12166;DHT22;6146;48.128;11.476;2024-02-21T06:02:36;4.00;99.90
12166;DHT22;6146;48.128;11.476;2024-02-21T06:05:02;4.00;99.90
12166;DHT22;6146;48.128;11.476;2024-02-21T06:07:27;4.00;99.90
12166;DHT22;6146;48.128;11.476;2024-02-21T06:09:53;4.00;99.90
12166;DHT22;6146;48.128;11.476;2024-02-21T06:12:19;3.90;99.90
12166;DHT22;6146;48.128;11.476;2024-02-21T06:14:44;3.90;99.90
12166;DHT22;6146;48.128;11.476;2024-02-21T06:17:10;3.90;99.90
12166;DHT22;6146;48.128;11.476;2024-02-21T06:19:40;3.90;99.90
12166;DHT22;6146;48.128;11.476;2024-02-21T06:22:06;3.90;99.90
12166;DHT22;6146;48.128;11.476;2024-02-21T06:24:34;3.90;99.90
12166;DHT22;6146;48.128;11.476;2024-02-21T06:26:59;4.00;99.90
12166;DHT22;6146;48.128;11.476;2024-02-21T06:29:25;4.10;99.90
12166;DHT22;6146;48.128;11.476;2024-02-21T06:31:50;4.10;99.90
12166;DHT22;6146;48.128;11.476;2024-02-21T06:34:16;4.20;99.90
12166;DHT22;6146;48.128;11.476;2024-02-21T06:36:42;4.20;99.90
12166;DHT22;6146;48.128;11.476;2024-02-21T06:39:07;4.30;99.90
12166;DHT22;6146;48.128;11.476;2024-02-21T06:41:33;4.40;99.90
12166;DHT22;6146;48.128;11.476;2024-02-21T06:43:59;4.40;99.90
12166;DHT22;6146;48.128;11.476;2024-02-21T06:46:26;4.50;99.90
12166;DHT22;6146;48.128;11.476;2024-02-21T06:48:52;4.60;99.90
12166;DHT22;6146;48.128;11.476;2024-02-21T06:51:17;4.60;99.90
12166;DHT22;6146;48.128;11.476;2024-02-21T06:53:43;4.60;99.90
12166;DHT22;6146;48.128;11.476;2024-02-21T06:56:09;4.70;99.90
12166;DHT22;6146;48.128;11.476;2024-02-21T06:58:35;4.70;99.90
12166;DHT22;6146;48.128;11.476;2024-02-21T07:01:01;4.60;99.90
12166;DHT22;6146;48.128;11.476;2024-02-21T07:03:27;4.60;99.90
12166;DHT22;6146;48.128;11.476;2024-02-21T07:05:53;4.60;99.90
12166;DHT22;6146;48.128;11.476;2024-02-21T07:08:18;4.60;99.90
12166;DHT22;6146;48.128;11.476;2024-02-21T07:10:44;4.60;99.90
12166;DHT22;6146;48.128;11.476;2024-02-21T07:13:09;4.70;99.90
12166;DHT22;6146;48.128;11.476;2024-02-21T07:15:35;4.70;99.90
12166;DHT22;6146;48.128;11.476;2024-02-21T07:18:02;4.80;99.90
12166;DHT22;6146;48.128;11.476;2024-02-21T07:20:27;4.90;99.90
12166;DHT22;6146;48.128;11.476;2024-02-21T07:22:53;4.90;99.90
12166;DHT22;6146;48.128;11.476;2024-02-21T07:25:18;5.00;99.90
12166;DHT22;6146;48.128;11.476;2024-02-21T07:27:45;5.10;99.90
12166;DHT22;6146;48.128;11.476;2024-02-21T07:30:10;5.10;99.90
12166;DHT22;6146;48.128;11.476;2024-02-21T07:32:36;5.30;99.90
12166;DHT22;6146;48.128;11.476;2024-02-21T07:35:02;5.40;99.90
12166;DHT22;6146;48.128;11.476;2024-02-21T07:37:27;5.40;99.90
12166;DHT22;6146;48.128;11.476;2024-02-21T07:39:53;5.50;99.90
12166;DHT22;6146;48.128;11.476;2024-02-21T07:42:18;5.60;99.90
12166;DHT22;6146;48.128;11.476;2024-02-21T07:44:45;5.60;99.90
12166;DHT22;6146;48.128;11.476;2024-02-21T07:47:10;5.70;99.90
12166;DHT22;6146;48.128;11.476;2024-02-21T07:49:44;5.90;99.90
12166;DHT22;6146;48.128;11.476;2024-02-21T07:52:09;6.10;99.90
12166;DHT22;6146;48.128;11.476;2024-02-21T07:54:35;6.50;99.90
12166;DHT22;6146;48.128;11.476;2024-02-21T07:57:01;8.00;99.90
12166;DHT22;6146;48.128;11.476;2024-02-21T07:59:26;8.70;99.90
12166;DHT22;6146;48.128;11.476;2024-02-21T08:01:56;9.70;99.90
12166;DHT22;6146;48.128;11.476;2024-02-21T08:04:22;10.50;99.90
12166;DHT22;6146;48.128;11.476;2024-02-21T08:06:53;10.50;99.90
12166;DHT22;6146;48.128;11.476;2024-02-21T08:09:23;9.90;99.90
12166;DHT22;6146;48.128;11.476;2024-02-21T08:11:49;9.20;99.90
12166;DHT22;6146;48.128;11.476;2024-02-21T08:14:15;10.30;99.90
12166;DHT22;6146;48.128;11.476;2024-02-21T08:16:42;12.00;99.90
12166;DHT22;6146;48.128;11.476;2024-02-21T08:19:08;14.20;99.90
12166;DHT22;6146;48.128;11.476;2024-02-21T08:21:33;15.90;93.90
12166;DHT22;6146;48.128;11.476;2024-02-21T08:23:59;17.30;87.80
12166;DHT22;6146;48.128;11.476;2024-02-21T08:26:24;17.80;81.40
12166;DHT22;6146;48.128;11.476;2024-02-21T08:28:53;18.90;73.20
12166;DHT22;6146;48.128;11.476;2024-02-21T08:31:19;19.80;68.30
12166;DHT22;6146;48.128;11.476;2024-02-21T08:33:45;20.30;65.70
12166;DHT22;6146;48.128;11.476;2024-02-21T08:36:18;20.90;61.00
12166;DHT22;6146;48.128;11.476;2024-02-21T08:38:45;21.30;58.50
12166;DHT22;6146;48.128;11.476;2024-02-21T08:41:10;21.20;56.60
12166;DHT22;6146;48.128;11.476;2024-02-21T08:43:36;21.60;56.70
12166;DHT22;6146;48.128;11.476;2024-02-21T08:46:02;22.20;53.30
12166;DHT22;6146;48.128;11.476;2024-02-21T08:48:28;21.60;53.20
12166;DHT22;6146;48.128;11.476;2024-02-21T08:50:53;21.00;54.00
12166;DHT22;6146;48.128;11.476;2024-02-21T08:53:20;20.90;53.60
12166;DHT22;6146;48.128;11.476;2024-02-21T08:55:45;20.70;53.60
12166;DHT22;6146;48.128;11.476;2024-02-21T08:58:11;20.80;53.00
12166;DHT22;6146;48.128;11.476;2024-02-21T09:00:37;21.80;52.30
12166;DHT22;6146;48.128;11.476;2024-02-21T09:03:03;22.80;49.70
12166;DHT22;6146;48.128;11.476;2024-02-21T09:05:28;22.40;48.70
12166;DHT22;6146;48.128;11.476;2024-02-21T09:07:54;22.50;47.70
12166;DHT22;6146;48.128;11.476;2024-02-21T09:10:20;22.30;46.70
12166;DHT22;6146;48.128;11.476;2024-02-21T09:12:46;22.30;46.80
12166;DHT22;6146;48.128;11.476;2024-02-21T09:15:12;22.30;47.00
12166;DHT22;6146;48.128;11.476;2024-02-21T09:17:38;22.50;46.50
12166;DHT22;6146;48.128;11.476;2024-02-21T09:20:05;22.40;45.10
12166;DHT22;6146;48.128;11.476;2024-02-21T09:22:31;22.80;44.90
12166;DHT22;6146;48.128;11.476;2024-02-21T09:25:00;23.20;45.20
12166;DHT22;6146;48.128;11.476;2024-02-21T09:27:25;23.70;45.20
12166;DHT22;6146;48.128;11.476;2024-02-21T09:29:51;24.00;43.50
12166;DHT22;6146;48.128;11.476;2024-02-21T09:32:17;23.20;45.50
12166;DHT22;6146;48.128;11.476;2024-02-21T09:34:43;23.00;45.40
12166;DHT22;6146;48.128;11.476;2024-02-21T09:37:08;22.70;44.30
12166;DHT22;6146;48.128;11.476;2024-02-21T09:39:34;22.50;45.70
12166;DHT22;6146;48.128;11.476;2024-02-21T09:42:05;22.50;43.90
12166;DHT22;6146;48.128;11.476;2024-02-21T09:44:36;23.10;45.90
12166;DHT22;6146;48.128;11.476;2024-02-21T09:47:05;23.60;43.90
12166;DHT22;6146;48.128;11.476;2024-02-21T09:49:35;24.00;43.90
12166;DHT22;6146;48.128;11.476;2024-02-21T09:52:05;24.40;42.30
12166;DHT22;6146;48.128;11.476;2024-02-21T09:54:33;24.40;42.50
12166;DHT22;6146;48.128;11.476;2024-02-21T09:57:05;24.90;40.70
12166;DHT22;6146;48.128;11.476;2024-02-21T09:59:32;24.70;40.60
12166;DHT22;6146;48.128;11.476;2024-02-21T10:01:57;23.60;40.80
12166;DHT22;6146;48.128;11.476;2024-02-21T10:04:25;23.10;42.50
12166;DHT22;6146;48.128;11.476;2024-02-21T10:06:51;22.60;42.80
12166;DHT22;6146;48.128;11.476;2024-02-21T10:09:24;22.00;44.40
12166;DHT22;6146;48.128;11.476;2024-02-21T10:11:50;22.70;43.80
12166;DHT22;6146;48.128;11.476;2024-02-21T10:14:16;22.80;42.60
12166;DHT22;6146;48.128;11.476;2024-02-21T10:16:44;23.20;43.60
12166;DHT22;6146;48.128;11.476;2024-02-21T10:19:19;23.10;42.10
12166;DHT22;6146;48.128;11.476;2024-02-21T10:22:06;23.30;43.00
12166;DHT22;6146;48.128;11.476;2024-02-21T10:24:33;22.20;42.60
12166;DHT22;6146;48.128;11.476;2024-02-21T10:27:06;21.30;44.60
12166;DHT22;6146;48.128;11.476;2024-02-21T10:29:34;20.60;44.80
12166;DHT22;6146;48.128;11.476;2024-02-21T10:34:32;20.70;46.80
12166;DHT22;6146;48.128;11.476;2024-02-21T10:37:08;21.30;46.40
12166;DHT22;6146;48.128;11.476;2024-02-21T10:39:37;21.90;46.80
12166;DHT22;6146;48.128;11.476;2024-02-21T10:42:04;23.00;42.40
12166;DHT22;6146;48.128;11.476;2024-02-21T10:44:31;23.00;41.10
12166;DHT22;6146;48.128;11.476;2024-02-21T10:46:57;23.10;42.80
12166;DHT22;6146;48.128;11.476;2024-02-21T10:49:24;23.30;43.90
12166;DHT22;6146;48.128;11.476;2024-02-21T10:52:00;23.40;40.60
12166;DHT22;6146;48.128;11.476;2024-02-21T10:54:36;23.50;41.70
12166;DHT22;6146;48.128;11.476;2024-02-21T10:57:03;23.40;39.90
12166;DHT22;6146;48.128;11.476;2024-02-21T10:59:30;23.20;39.40
12166;DHT22;6146;48.128;11.476;2024-02-21T11:01:57;22.50;39.90
12166;DHT22;6146;48.128;11.476;2024-02-21T11:04:24;22.30;41.20
12166;DHT22;6146;48.128;11.476;2024-02-21T11:06:51;22.20;41.00
12166;DHT22;6146;48.128;11.476;2024-02-21T11:09:16;21.60;41.70
12166;DHT22;6146;48.128;11.476;2024-02-21T11:11:44;21.70;40.80
12166;DHT22;6146;48.128;11.476;2024-02-21T11:14:17;22.10;41.40
12166;DHT22;6146;48.128;11.476;2024-02-21T11:16:43;22.30;39.70
12166;DHT22;6146;48.128;11.476;2024-02-21T11:21:37;23.30;40.80
12166;DHT22;6146;48.128;11.476;2024-02-21T11:24:03;23.10;39.60
12166;DHT22;6146;48.128;11.476;2024-02-21T11:26:30;22.30;40.80
12166;DHT22;6146;48.128;11.476;2024-02-21T11:29:00;22.00;40.30
12166;DHT22;6146;48.128;11.476;2024-02-21T11:31:26;22.20;41.40
12166;DHT22;6146;48.128;11.476;2024-02-21T11:33:55;22.60;40.50
12166;DHT22;6146;48.128;11.476;2024-02-21T11:36:26;22.30;39.20
12166;DHT22;6146;48.128;11.476;2024-02-21T11:38:52;21.10;40.50
12166;DHT22;6146;48.128;11.476;2024-02-21T11:41:21;20.50;42.70
12166;DHT22;6146;48.128;11.476;2024-02-21T11:43:49;20.40;42.40
12166;DHT22;6146;48.128;11.476;2024-02-21T11:46:16;20.60;41.40
12166;DHT22;6146;48.128;11.476;2024-02-21T11:48:42;20.30;42.00
12166;DHT22;6146;48.128;11.476;2024-02-21T11:51:21;20.10;42.80
12166;DHT22;6146;48.128;11.476;2024-02-21T11:53:48;19.60;41.50
12166;DHT22;6146;48.128;11.476;2024-02-21T11:56:14;19.30;43.30
12166;DHT22;6146;48.128;11.476;2024-02-21T11:58:39;19.00;44.60
12166;DHT22;6146;48.128;11.476;2024-02-21T12:01:05;19.80;42.50
12166;DHT22;6146;48.128;11.476;2024-02-21T12:03:32;20.90;42.00
12166;DHT22;6146;48.128;11.476;2024-02-21T12:06:01;21.90;40.10
12166;DHT22;6146;48.128;11.476;2024-02-21T12:08:40;22.70;38.50
12166;DHT22;6146;48.128;11.476;2024-02-21T12:11:19;22.30;37.70
12166;DHT22;6146;48.128;11.476;2024-02-21T12:13:45;23.10;37.20
12166;DHT22;6146;48.128;11.476;2024-02-21T12:16:11;23.60;37.30
12166;DHT22;6146;48.128;11.476;2024-02-21T12:18:36;24.40;35.40
12166;DHT22;6146;48.128;11.476;2024-02-21T12:21:02;24.50;33.80
12166;DHT22;6146;48.128;11.476;2024-02-21T12:23:30;24.60;34.80
12166;DHT22;6146;48.128;11.476;2024-02-21T12:25:55;24.90;34.70
12166;DHT22;6146;48.128;11.476;2024-02-21T12:28:21;24.90;34.40
12166;DHT22;6146;48.128;11.476;2024-02-21T12:30:47;24.30;33.40
12166;DHT22;6146;48.128;11.476;2024-02-21T12:33:13;24.70;33.50
12166;DHT22;6146;48.128;11.476;2024-02-21T12:35:39;25.10;32.40
12166;DHT22;6146;48.128;11.476;2024-02-21T12:38:05;25.00;31.00
12166;DHT22;6146;48.128;11.476;2024-02-21T12:40:31;24.70;32.50
12166;DHT22;6146;48.128;11.476;2024-02-21T12:43:01;24.80;32.10
12166;DHT22;6146;48.128;11.476;2024-02-21T12:45:28;24.40;32.90
12166;DHT22;6146;48.128;11.476;2024-02-21T12:47:54;24.30;34.20
12166;DHT22;6146;48.128;11.476;2024-02-21T12:50:19;24.00;33.70
12166;DHT22;6146;48.128;11.476;2024-02-21T12:52:46;23.50;33.30
12166;DHT22;6146;48.128;11.476;2024-02-21T12:55:11;22.70;33.60
12166;DHT22;6146;48.128;11.476;2024-02-21T12:57:39;22.60;34.00
12166;DHT22;6146;48.128;11.476;2024-02-21T13:00:05;22.40;34.20
12166;DHT22;6146;48.128;11.476;2024-02-21T13:02:34;22.40;36.40
12166;DHT22;6146;48.128;11.476;2024-02-21T13:05:00;22.70;34.80
12166;DHT22;6146;48.128;11.476;2024-02-21T13:07:27;22.40;33.00
12166;DHT22;6146;48.128;11.476;2024-02-21T13:09:53;21.80;34.50
12166;DHT22;6146;48.128;11.476;2024-02-21T13:12:19;21.30;36.20
12166;DHT22;6146;48.128;11.476;2024-02-21T13:14:45;21.00;36.30
12166;DHT22;6146;48.128;11.476;2024-02-21T13:17:10;21.30;36.10
12166;DHT22;6146;48.128;11.476;2024-02-21T13:19:36;21.40;35.80
12166;DHT22;6146;48.128;11.476;2024-02-21T13:22:01;21.60;36.10
12166;DHT22;6146;48.128;11.476;2024-02-21T13:24:27;21.90;35.80
12166;DHT22;6146;48.128;11.476;2024-02-21T13:26:53;22.40;35.20
12166;DHT22;6146;48.128;11.476;2024-02-21T13:29:19;21.80;34.30
12166;DHT22;6146;48.128;11.476;2024-02-21T13:31:46;21.20;35.90
12166;DHT22;6146;48.128;11.476;2024-02-21T13:34:11;20.50;36.10
12166;DHT22;6146;48.128;11.476;2024-02-21T13:36:37;20.40;38.30
12166;DHT22;6146;48.128;11.476;2024-02-21T13:39:02;20.50;36.80
12166;DHT22;6146;48.128;11.476;2024-02-21T13:41:30;19.60;38.10
12166;DHT22;6146;48.128;11.476;2024-02-21T13:43:56;19.50;39.30
12166;DHT22;6146;48.128;11.476;2024-02-21T13:46:22;19.80;39.10
12166;DHT22;6146;48.128;11.476;2024-02-21T13:48:47;19.70;39.70
12166;DHT22;6146;48.128;11.476;2024-02-21T13:51:13;19.00;39.20
12166;DHT22;6146;48.128;11.476;2024-02-21T13:53:38;19.00;40.70
12166;DHT22;6146;48.128;11.476;2024-02-21T13:56:04;19.50;40.40
12166;DHT22;6146;48.128;11.476;2024-02-21T13:58:30;19.70;38.80
12166;DHT22;6146;48.128;11.476;2024-02-21T14:00:55;19.40;39.20
12166;DHT22;6146;48.128;11.476;2024-02-21T14:03:21;18.70;39.80
12166;DHT22;6146;48.128;11.476;2024-02-21T14:05:47;18.30;41.50
12166;DHT22;6146;48.128;11.476;2024-02-21T14:08:14;18.00;41.80
12166;DHT22;6146;48.128;11.476;2024-02-21T14:10:40;17.50;42.40
12166;DHT22;6146;48.128;11.476;2024-02-21T14:13:05;17.40;43.80
12166;DHT22;6146;48.128;11.476;2024-02-21T14:15:31;17.30;43.70
12166;DHT22;6146;48.128;11.476;2024-02-21T14:17:57;17.40;43.10
12166;DHT22;6146;48.128;11.476;2024-02-21T14:20:22;17.50;44.30
12166;DHT22;6146;48.128;11.476;2024-02-21T14:22:48;17.60;43.60
12166;DHT22;6146;48.128;11.476;2024-02-21T14:25:13;17.80;43.30
12166;DHT22;6146;48.128;11.476;2024-02-21T14:27:40;17.60;42.80
12166;DHT22;6146;48.128;11.476;2024-02-21T14:30:06;17.50;44.60
12166;DHT22;6146;48.128;11.476;2024-02-21T14:32:36;17.50;45.60
12166;DHT22;6146;48.128;11.476;2024-02-21T14:35:01;17.40;43.30
12166;DHT22;6146;48.128;11.476;2024-02-21T14:37:27;17.00;43.20
12166;DHT22;6146;48.128;11.476;2024-02-21T14:39:53;16.80;44.10
12166;DHT22;6146;48.128;11.476;2024-02-21T14:42:19;16.70;44.70
12166;DHT22;6146;48.128;11.476;2024-02-21T14:44:44;16.60;46.00
12166;DHT22;6146;48.128;11.476;2024-02-21T14:47:10;16.40;45.30
12166;DHT22;6146;48.128;11.476;2024-02-21T14:49:35;16.40;45.90
12166;DHT22;6146;48.128;11.476;2024-02-21T14:52:01;16.30;45.70
12166;DHT22;6146;48.128;11.476;2024-02-21T14:54:27;16.30;45.70
12166;DHT22;6146;48.128;11.476;2024-02-21T14:56:53;16.40;45.80
12166;DHT22;6146;48.128;11.476;2024-02-21T14:59:19;16.30;44.80
12166;DHT22;6146;48.128;11.476;2024-02-21T15:01:45;16.20;46.90
12166;DHT22;6146;48.128;11.476;2024-02-21T15:04:11;15.90;47.50
12166;DHT22;6146;48.128;11.476;2024-02-21T15:06:36;15.80;47.50
12166;DHT22;6146;48.128;11.476;2024-02-21T15:09:03;15.70;47.60
12166;DHT22;6146;48.128;11.476;2024-02-21T15:11:29;15.50;48.10
12166;DHT22;6146;48.128;11.476;2024-02-21T15:13:55;15.40;48.50
12166;DHT22;6146;48.128;11.476;2024-02-21T15:16:20;15.30;48.20
12166;DHT22;6146;48.128;11.476;2024-02-21T15:18:46;15.10;48.60
12166;DHT22;6146;48.128;11.476;2024-02-21T15:21:11;15.10;49.70
12166;DHT22;6146;48.128;11.476;2024-02-21T15:23:40;15.00;49.70
12166;DHT22;6146;48.128;11.476;2024-02-21T15:26:06;15.00;49.40
12166;DHT22;6146;48.128;11.476;2024-02-21T15:28:31;14.90;49.60
12166;DHT22;6146;48.128;11.476;2024-02-21T15:30:57;14.80;49.50
12166;DHT22;6146;48.128;11.476;2024-02-21T15:33:23;14.60;49.90
12166;DHT22;6146;48.128;11.476;2024-02-21T15:35:49;14.50;50.40
12166;DHT22;6146;48.128;11.476;2024-02-21T15:38:14;14.50;50.90